createdAt,value
2022-12-18T00:01:00.864Z,3.97
2022-12-18T00:04:09.644Z,6.33
2022-12-18T00:07:12.740Z,7.77
2022-12-18T00:10:15.792Z,4.57
2022-12-18T00:13:21.882Z,7.50
2022-12-18T00:16:26.606Z,11.23
2022-12-18T00:19:29.792Z,9.33
2022-12-18T00:22:32.991Z,11.57
2022-12-18T00:25:37.835Z,7.70
2022-12-18T00:28:41.410Z,7.80
2022-12-18T00:31:45.316Z,10.20
2022-12-18T00:34:48.356Z,9.70
2022-12-18T00:37:51.918Z,7.30
2022-12-18T00:40:55.128Z,8.57
2022-12-18T00:43:58.234Z,10.20
2022-12-18T00:47:01.376Z,6.95
2022-12-18T00:50:05.047Z,5.72
2022-12-18T00:53:08.203Z,4.07
2022-12-18T00:56:11.276Z,6.07
2022-12-18T00:59:14.316Z,4.15
2022-12-18T01:02:18.041Z,6.97
2022-12-18T01:08:24.372Z,7.50
2022-12-18T01:11:27.848Z,15.73
2022-12-18T01:14:30.912Z,11.60
2022-12-18T01:17:34.713Z,7.07
2022-12-18T01:23:42.728Z,5.00
2022-12-18T01:26:45.958Z,5.03
2022-12-18T01:29:51.632Z,2.47
2022-12-18T01:32:56.044Z,4.20
2022-12-18T01:35:59.160Z,11.35
2022-12-18T01:39:05.945Z,9.70
2022-12-18T01:42:17.309Z,18.93
2022-12-18T01:45:20.632Z,18.73
2022-12-18T01:48:23.713Z,6.93
2022-12-18T01:51:28.762Z,6.55
2022-12-18T01:54:31.906Z,8.43
2022-12-18T01:57:35.484Z,7.07
2022-12-18T02:00:39.072Z,6.33
2022-12-18T02:03:45.905Z,4.43
2022-12-18T02:07:09.569Z,7.13
2022-12-18T02:10:31.475Z,4.67
2022-12-18T02:13:52.892Z,4.20
2022-12-18T02:17:12.836Z,4.70
2022-12-18T02:20:20.073Z,4.73
2022-12-18T02:23:54.054Z,4.17
2022-12-18T02:27:08.217Z,6.72
2022-12-18T02:30:12.487Z,5.20
2022-12-18T02:33:16.980Z,8.27
2022-12-18T02:36:22.687Z,8.63
2022-12-18T02:39:28.692Z,31.27
2022-12-18T02:42:37.255Z,14.63
2022-12-18T02:45:58.559Z,13.90
2022-12-18T02:49:21.236Z,9.47
2022-12-18T02:52:36.823Z,14.00
2022-12-18T02:56:09.575Z,12.87
2022-12-18T02:59:25.045Z,10.63
2022-12-18T03:02:48.162Z,13.77
2022-12-18T03:06:06.415Z,13.85
2022-12-18T03:09:12.922Z,13.57
2022-12-18T03:12:26.448Z,15.30
2022-12-18T03:15:55.068Z,19.48
2022-12-18T03:19:03.362Z,19.40
2022-12-18T03:22:10.617Z,34.92
2022-12-18T03:25:27.507Z,16.35
2022-12-18T03:28:33.643Z,17.92
2022-12-18T03:31:43.514Z,21.02
2022-12-18T03:34:51.531Z,19.80
2022-12-18T03:37:57.843Z,22.65
2022-12-18T03:41:33.442Z,20.50
2022-12-18T03:45:03.744Z,18.73
2022-12-18T03:48:19.072Z,25.08
2022-12-18T03:51:46.031Z,20.92
2022-12-18T03:54:49.967Z,24.17
2022-12-18T03:57:55.165Z,32.70
2022-12-18T04:01:04.028Z,31.70
2022-12-18T04:04:10.448Z,38.13
2022-12-18T04:07:18.957Z,26.27
2022-12-18T04:10:22.658Z,41.65
2022-12-18T04:13:30.347Z,39.78
2022-12-18T04:16:35.886Z,38.65
2022-12-18T04:19:41.529Z,33.28
2022-12-18T04:22:45.323Z,32.33
2022-12-18T04:25:50.186Z,33.10
2022-12-18T04:29:03.661Z,27.95
2022-12-18T04:32:07.259Z,28.55
2022-12-18T04:35:12.242Z,31.65
2022-12-18T04:38:18.992Z,30.50
2022-12-18T04:41:26.008Z,26.63
2022-12-18T04:44:30.241Z,28.92
2022-12-18T04:47:33.450Z,22.37
2022-12-18T04:50:36.592Z,19.52
2022-12-18T04:53:39.899Z,19.08
2022-12-18T04:56:43.730Z,21.48
2022-12-18T04:59:46.889Z,17.25
2022-12-18T05:02:50.149Z,12.60
2022-12-18T05:05:53.662Z,24.60
2022-12-18T05:08:56.923Z,17.48
2022-12-18T05:11:59.997Z,19.63
2022-12-18T05:15:03.090Z,22.60
2022-12-18T05:18:06.295Z,26.85
2022-12-18T05:21:09.543Z,34.10
2022-12-18T05:24:13.183Z,30.37
2022-12-18T05:27:16.469Z,29.17
2022-12-18T05:30:19.765Z,20.73
2022-12-18T05:33:24.285Z,23.63
2022-12-18T05:36:27.403Z,23.33
2022-12-18T05:39:30.648Z,22.95
2022-12-18T05:42:33.654Z,28.87
2022-12-18T05:45:39.924Z,22.95
2022-12-18T05:48:44.206Z,30.67
2022-12-18T05:51:47.580Z,22.13
2022-12-18T05:54:50.719Z,29.45
2022-12-18T05:57:53.839Z,23.25
2022-12-18T06:00:56.894Z,24.27
2022-12-18T06:04:00.577Z,22.23
2022-12-18T06:07:03.864Z,17.63
2022-12-18T06:10:07.786Z,21.17
2022-12-18T06:13:10.999Z,21.45
2022-12-18T06:16:14.477Z,17.88
2022-12-18T06:19:18.404Z,20.33
2022-12-18T06:22:21.534Z,23.88
2022-12-18T06:25:24.654Z,22.70
2022-12-18T06:28:27.743Z,18.05
2022-12-18T06:31:30.897Z,20.60
2022-12-18T06:34:34.503Z,19.90
2022-12-18T06:37:37.577Z,25.35
2022-12-18T06:40:41.107Z,21.30
2022-12-18T06:43:44.746Z,12.82
2022-12-18T06:46:48.068Z,28.02
2022-12-18T06:49:51.485Z,16.35
2022-12-18T06:52:54.583Z,27.60
2022-12-18T06:56:09.808Z,28.08
2022-12-18T06:59:16.126Z,29.25
2022-12-18T07:02:19.533Z,24.38
2022-12-18T07:05:22.745Z,27.63
2022-12-18T07:08:26.282Z,20.42
2022-12-18T07:11:29.291Z,18.50
2022-12-18T07:14:32.399Z,26.45
2022-12-18T07:17:35.551Z,24.20
2022-12-18T07:20:38.785Z,23.02
2022-12-18T07:23:42.201Z,23.37
2022-12-18T07:26:48.351Z,25.05
2022-12-18T07:29:51.576Z,24.27
2022-12-18T07:32:54.756Z,19.63
2022-12-18T07:35:57.911Z,21.67
2022-12-18T07:39:01.091Z,26.70
2022-12-18T07:42:22.876Z,24.27
2022-12-18T07:45:26.337Z,18.55
2022-12-18T07:48:30.640Z,22.92
2022-12-18T07:51:33.787Z,19.65
2022-12-18T07:54:37.068Z,18.87
2022-12-18T07:58:00.713Z,20.27
2022-12-18T08:01:12.733Z,17.25
2022-12-18T08:04:16.258Z,14.18
2022-12-18T08:07:19.549Z,20.98
2022-12-18T08:10:22.927Z,32.07
2022-12-18T08:13:26.528Z,43.40
2022-12-18T08:16:29.765Z,34.38
2022-12-18T08:19:32.997Z,42.97
2022-12-18T08:22:40.615Z,33.50
2022-12-18T08:25:43.722Z,22.55
2022-12-18T08:28:47.352Z,22.13
2022-12-18T08:31:51.521Z,22.17
2022-12-18T09:22:47.679Z,14.63
2022-12-18T09:25:50.943Z,12.63
2022-12-18T09:28:54.822Z,10.98
2022-12-18T09:31:58.151Z,9.75
2022-12-18T09:35:01.354Z,12.98
2022-12-18T09:38:04.476Z,6.20
2022-12-18T09:41:18.098Z,9.52
2022-12-18T09:44:43.075Z,11.55
2022-12-18T09:47:50.817Z,13.30
2022-12-18T09:51:01.564Z,8.13
2022-12-18T09:54:13.648Z,6.17
2022-12-18T09:57:20.624Z,7.10
2022-12-18T10:00:26.646Z,10.67
2022-12-18T10:03:29.922Z,12.80
2022-12-18T10:06:38.833Z,16.42
2022-12-18T10:10:07.395Z,12.80
2022-12-18T10:13:31.973Z,14.53
2022-12-18T10:19:51.165Z,9.60
2022-12-18T10:23:02.269Z,7.25
2022-12-18T10:26:08.363Z,7.77
2022-12-18T10:29:16.134Z,15.50
2022-12-18T10:32:27.823Z,12.03
2022-12-18T10:35:31.067Z,13.53
2022-12-18T10:38:34.650Z,10.70
2022-12-18T10:41:38.048Z,14.13
2022-12-18T10:44:41.064Z,17.33
2022-12-18T10:47:46.955Z,12.40
2022-12-18T10:54:23.822Z,9.93
2022-12-18T10:57:37.665Z,10.73
2022-12-18T11:00:41.214Z,10.18
2022-12-18T11:04:02.490Z,14.73
2022-12-18T11:07:08.510Z,19.47
2022-12-18T11:10:20.692Z,16.47
2022-12-18T11:13:28.811Z,14.27
2022-12-18T11:16:38.301Z,43.83
2022-12-18T11:19:43.368Z,30.73
2022-12-18T11:22:58.692Z,13.77
2022-12-18T11:26:04.773Z,15.77
2022-12-18T11:29:18.881Z,13.87
2022-12-18T11:32:34.023Z,12.20
2022-12-18T11:38:45.567Z,9.73
2022-12-18T11:42:19.124Z,8.37
2022-12-18T11:45:38.169Z,13.23
2022-12-18T11:48:46.741Z,15.43
2022-12-18T11:52:15.855Z,15.33
2022-12-18T11:55:24.946Z,17.40
2022-12-18T11:58:50.018Z,9.53
2022-12-18T12:01:58.351Z,9.20
2022-12-18T12:05:42.851Z,11.60
2022-12-18T12:09:03.327Z,10.77
2022-12-18T12:12:49.112Z,9.70
2022-12-18T12:16:20.668Z,9.80
2022-12-18T12:19:32.696Z,14.57
2022-12-18T12:22:45.014Z,9.57
2022-12-18T12:25:59.599Z,16.35
2022-12-18T12:29:06.921Z,8.57
2022-12-18T12:32:41.439Z,7.13
2022-12-18T12:36:06.188Z,7.63
2022-12-18T12:39:14.437Z,15.87
2022-12-18T12:42:47.024Z,12.87
2022-12-18T12:46:06.087Z,11.30
2022-12-18T12:49:27.566Z,7.73
2022-12-18T12:52:30.730Z,5.70
2022-12-18T12:55:35.816Z,11.57
2022-12-18T12:59:23.533Z,16.23
2022-12-18T13:03:29.680Z,12.53
2022-12-18T13:06:44.844Z,11.07
2022-12-18T13:10:21.352Z,14.83
2022-12-18T13:13:25.869Z,14.20
2022-12-18T13:16:29.165Z,13.77
2022-12-18T13:19:33.512Z,7.53
2022-12-18T13:22:38.609Z,7.43
2022-12-18T13:25:42.179Z,15.83
2022-12-18T13:28:48.678Z,19.58
2022-12-18T13:31:51.799Z,11.77
2022-12-18T13:35:19.930Z,8.02
2022-12-18T13:38:39.680Z,6.90
2022-12-18T13:41:44.156Z,12.43
2022-12-18T13:44:48.787Z,15.27
2022-12-18T13:47:52.157Z,12.13
2022-12-18T13:51:19.429Z,13.23
2022-12-18T13:54:41.733Z,20.40
2022-12-18T13:57:45.580Z,21.80
2022-12-18T14:00:50.721Z,21.83
2022-12-18T14:04:11.856Z,13.00
2022-12-18T14:07:24.791Z,17.73
2022-12-18T14:10:48.285Z,9.18
2022-12-18T14:13:52.330Z,10.63
2022-12-18T14:16:55.822Z,9.97
2022-12-18T14:19:59.862Z,17.85
2022-12-18T14:23:03.017Z,10.57
2022-12-18T14:26:32.460Z,7.93
2022-12-18T14:29:36.894Z,8.10
2022-12-18T14:32:40.080Z,11.93
2022-12-18T14:35:55.747Z,9.27
2022-12-18T14:39:00.859Z,9.43
2022-12-18T14:42:04.067Z,6.10
2022-12-18T14:45:41.394Z,11.57
2022-12-18T14:48:49.822Z,10.27
2022-12-18T14:52:04.937Z,9.17
2022-12-18T14:55:17.691Z,10.77
2022-12-18T14:58:21.131Z,9.57
2022-12-18T15:01:28.108Z,9.07
2022-12-18T15:04:42.474Z,13.63
2022-12-18T15:07:59.333Z,18.63
2022-12-18T15:11:02.631Z,28.23
2022-12-18T15:14:44.742Z,24.60
2022-12-18T15:17:47.946Z,25.33
2022-12-18T15:21:11.293Z,31.75
2022-12-18T15:24:26.264Z,31.10
2022-12-18T15:27:37.288Z,24.47
2022-12-18T15:30:40.606Z,22.23
2022-12-18T15:33:50.773Z,28.80
2022-12-18T15:36:54.020Z,21.50
2022-12-18T15:39:57.126Z,22.45
2022-12-18T15:43:18.906Z,20.53
2022-12-18T15:46:26.302Z,19.23
2022-12-18T15:49:29.481Z,16.43
2022-12-18T15:52:47.537Z,7.13
2022-12-18T15:56:09.517Z,19.60
2022-12-18T15:59:16.647Z,23.13
2022-12-18T16:02:21.007Z,29.10
2022-12-18T16:05:25.582Z,58.00
2022-12-18T16:08:30.365Z,42.90
2022-12-18T16:11:44.348Z,36.13
2022-12-18T16:17:50.767Z,28.30
2022-12-18T16:20:54.573Z,38.42
2022-12-18T16:27:02.355Z,39.25
2022-12-18T16:30:05.919Z,24.10
2022-12-18T16:33:12.120Z,21.67
2022-12-18T16:36:15.408Z,18.73
2022-12-18T16:39:19.247Z,12.32
2022-12-18T16:45:25.225Z,7.23
2022-12-18T16:48:28.413Z,7.05
2022-12-18T16:51:36.747Z,11.13
2022-12-18T16:54:39.886Z,10.20
2022-12-18T16:57:43.065Z,8.25
2022-12-18T17:00:46.094Z,8.77
2022-12-18T17:04:04.306Z,15.20
2022-12-18T17:07:07.459Z,5.73
2022-12-18T17:10:10.885Z,21.90
2022-12-18T17:13:13.899Z,9.85
2022-12-18T17:16:18.191Z,7.13
2022-12-18T17:19:22.203Z,10.70
2022-12-18T17:22:25.428Z,16.13
2022-12-18T17:25:28.440Z,15.73
2022-12-18T17:28:31.942Z,10.27
2022-12-18T17:31:35.973Z,18.08
2022-12-18T17:34:39.295Z,32.57
2022-12-18T17:37:42.383Z,24.15
2022-12-18T17:40:46.590Z,29.35
2022-12-18T17:44:01.335Z,27.57
2022-12-18T17:47:04.507Z,18.17
2022-12-18T17:50:08.168Z,9.88
2022-12-18T17:56:15.844Z,8.70
2022-12-18T17:59:18.849Z,6.70
2022-12-18T18:02:22.104Z,4.07
2022-12-18T18:05:26.298Z,4.77
2022-12-18T18:08:30.074Z,1.83
2022-12-18T18:11:51.772Z,6.67
2022-12-18T18:14:56.395Z,5.87
2022-12-18T18:18:01.845Z,3.03
2022-12-18T18:21:06.851Z,7.90
2022-12-18T18:24:13.301Z,14.20
2022-12-18T18:27:16.908Z,15.13
2022-12-18T18:33:23.185Z,6.30
2022-12-18T18:36:26.284Z,9.82
2022-12-18T18:39:30.479Z,10.15
2022-12-18T18:42:33.502Z,9.97
2022-12-18T18:45:36.623Z,11.27
2022-12-18T18:48:42.482Z,7.93
2022-12-18T18:51:46.843Z,9.07
2022-12-18T18:55:11.516Z,5.22
2022-12-18T18:58:13.100Z,5.83
2022-12-18T19:01:18.706Z,4.78
2022-12-18T19:04:21.884Z,4.97
2022-12-18T19:07:30.492Z,11.10
2022-12-18T19:10:34.228Z,7.73
2022-12-18T19:13:37.249Z,12.10
2022-12-18T19:16:41.527Z,11.60
2022-12-18T19:19:44.710Z,8.17
2022-12-18T19:22:55.090Z,7.35
2022-12-18T19:26:27.842Z,7.13
2022-12-18T19:29:25.762Z,11.40
2022-12-18T19:32:28.969Z,8.70
2022-12-18T19:35:32.308Z,12.55
2022-12-18T19:38:36.153Z,10.13
2022-12-18T19:41:39.758Z,7.22
2022-12-18T19:44:42.959Z,10.80
2022-12-18T19:47:47.185Z,11.43
2022-12-18T19:50:50.252Z,10.60
2022-12-18T19:53:58.462Z,14.00
2022-12-18T19:57:03.182Z,5.77
2022-12-18T20:03:25.193Z,6.87
2022-12-18T20:06:34.829Z,4.13
2022-12-18T20:09:37.999Z,3.53
2022-12-18T20:15:45.498Z,7.53
2022-12-18T20:18:49.885Z,6.67
2022-12-18T20:21:53.293Z,8.37
2022-12-18T20:24:56.587Z,10.23
2022-12-18T20:27:59.885Z,10.48
2022-12-18T20:31:05.280Z,3.35
2022-12-18T20:34:09.063Z,3.17
2022-12-18T20:37:12.570Z,8.57
2022-12-18T20:43:18.923Z,11.87
2022-12-18T20:46:22.157Z,9.07
2022-12-18T20:49:26.557Z,8.75
2022-12-18T20:52:29.671Z,14.90
2022-12-18T20:55:32.754Z,10.07
2022-12-18T20:58:36.661Z,12.48
2022-12-18T21:01:45.291Z,8.03
2022-12-18T21:04:52.084Z,6.47
2022-12-18T21:07:55.079Z,2.00
2022-12-18T21:11:31.938Z,4.80
2022-12-18T21:14:35.661Z,2.50
2022-12-18T21:17:44.591Z,8.77
2022-12-18T21:20:48.117Z,3.63
2022-12-18T21:23:51.755Z,9.52
2022-12-18T21:26:55.048Z,6.38
2022-12-18T21:29:58.206Z,6.07
2022-12-18T21:33:01.288Z,3.42
2022-12-18T21:36:08.716Z,6.70
2022-12-18T21:39:11.811Z,6.23
2022-12-18T21:42:33.407Z,10.02
2022-12-18T21:45:36.419Z,10.23
2022-12-18T21:48:44.002Z,5.35
2022-12-18T21:51:47.238Z,4.70
2022-12-18T21:54:50.308Z,5.63
2022-12-18T21:57:54.968Z,5.03
2022-12-18T22:00:58.300Z,5.07
2022-12-18T22:04:01.521Z,6.20
2022-12-18T22:07:05.901Z,10.23
2022-12-18T22:10:09.743Z,5.23
2022-12-18T22:13:12.840Z,6.60
2022-12-18T22:16:15.970Z,18.20
2022-12-18T22:19:20.235Z,10.82
2022-12-18T22:22:23.548Z,27.90
2022-12-18T22:25:26.683Z,19.92
2022-12-18T22:28:51.325Z,16.85
2022-12-18T22:31:54.426Z,15.13
2022-12-18T22:35:01.722Z,21.58
2022-12-18T22:38:08.394Z,21.40
2022-12-18T22:41:11.554Z,15.98
2022-12-18T22:44:15.211Z,21.55
2022-12-18T22:47:24.249Z,11.57
2022-12-18T22:50:29.728Z,8.53
2022-12-18T22:53:32.892Z,5.85
2022-12-18T22:56:36.029Z,4.10
2022-12-18T22:59:39.073Z,9.45
2022-12-18T23:02:42.324Z,24.10
2022-12-18T23:05:45.703Z,15.85
2022-12-18T23:08:54.391Z,18.10
2022-12-18T23:11:59.072Z,23.00
2022-12-18T23:15:02.208Z,11.15
2022-12-18T23:18:05.467Z,32.25
2022-12-18T23:21:16.879Z,18.40
2022-12-18T23:24:20.351Z,12.80
2022-12-18T23:27:23.443Z,34.35
2022-12-18T23:30:26.592Z,9.15
2022-12-18T23:33:29.853Z,20.08
2022-12-18T23:39:47.012Z,13.20
2022-12-18T23:42:50.068Z,23.90
2022-12-18T23:45:55.756Z,19.50
2022-12-18T23:49:00.374Z,10.10
2022-12-18T23:52:03.444Z,7.23
2022-12-18T23:55:07.100Z,7.25
2022-12-18T23:58:18.711Z,10.30
